New Haven, Indiana
Current Conditions -  °F | °C
As of 4:54 PM on Monday 22 Dec 2014 (Local Time) from KFWA Reporting Station
Haze Haze  
Wind Chill: 29°   Ceiling: 8000
Heat Index: 37°   Visibility: 6mi
Dew Point: 33°   Wind: 12mph
Humidity: 86%   Direction: 80°E
Pressure: 29.83"   Gusts: NA
Location:  41.07°N, 85.02°W
Report Text: KFWA 222154Z 08010KT 6SM BR BKN080 OVC120 03/01 A2983 RMK AO2 SLP109 T00280006
Loading
Personal Weather Stations






























Interactive Weather Map New forecast layout! Learn more

10-Day Weather Forecast

Advertisements
Track Severe Weather on mobile